Randolph, Utah
Current Conditions -  °F | °C
As of 9:53 PM on Friday 19 Dec 2014 (Local Time) from KEVW Reporting Station
Overcast Overcast  
Wind Chill: 23°   Ceiling: 7000
Heat Index: 30°   Visibility: 10mi
Dew Point: 21°   Wind: 7mph
Humidity: 69%   Direction: 220°SW
Pressure: 30.1"   Gusts: NA
Location:  41.67°N, 111.18°W
Report Text: KEVW 200453Z AUTO 22006KT 10SM BKN070 OVC085 M01/M06 A3010 RMK AO2 SLP206 T10111061
Loading
Personal Weather Stations






























Interactive Weather Map New forecast layout! Learn more

10-Day Weather Forecast

Advertisements
Track Severe Weather on mobile